sensor_id;sensor_type;location;lat;lon;timestamp;P1;durP1;ratioP1;P2;durP2;ratioP2
50631;SDS011;49583;45.590;-122.498;2023-05-10T00:02:25;1.70;;;0.80;;
50631;SDS011;49583;45.590;-122.498;2023-05-10T00:04:38;3.40;;;0.70;;
50631;SDS011;49583;45.590;-122.498;2023-05-10T00:06:51;1.40;;;0.80;;
50631;SDS011;49583;45.590;-122.498;2023-05-10T00:09:04;2.60;;;0.70;;
50631;SDS011;49583;45.590;-122.498;2023-05-10T00:11:20;1.50;;;0.70;;
50631;SDS011;49583;45.590;-122.498;2023-05-10T00:13:32;1.60;;;0.70;;
50631;SDS011;49583;45.590;-122.498;2023-05-10T00:15:57;1.20;;;0.60;;
50631;SDS011;49583;45.590;-122.498;2023-05-10T00:18:09;1.60;;;0.70;;
50631;SDS011;49583;45.590;-122.498;2023-05-10T00:20:22;1.10;;;0.80;;
50631;SDS011;49583;45.590;-122.498;2023-05-10T00:22:35;1.40;;;0.70;;
50631;SDS011;49583;45.590;-122.498;2023-05-10T00:24:51;1.70;;;0.90;;
50631;SDS011;49583;45.590;-122.498;2023-05-10T00:27:07;1.60;;;0.60;;
50631;SDS011;49583;45.590;-122.498;2023-05-10T00:29:22;1.20;;;0.90;;
50631;SDS011;49583;45.590;-122.498;2023-05-10T00:31:35;3.40;;;0.70;;
50631;SDS011;49583;45.590;-122.498;2023-05-10T00:33:48;3.30;;;0.60;;
50631;SDS011;49583;45.590;-122.498;2023-05-10T00:36:02;1.00;;;0.70;;
50631;SDS011;49583;45.590;-122.498;2023-05-10T00:38:20;1.30;;;0.80;;
50631;SDS011;49583;45.590;-122.498;2023-05-10T00:40:32;2.20;;;0.90;;
50631;SDS011;49583;45.590;-122.498;2023-05-10T00:42:49;1.00;;;0.70;;
50631;SDS011;49583;45.590;-122.498;2023-05-10T00:45:06;0.90;;;0.70;;
50631;SDS011;49583;45.590;-122.498;2023-05-10T00:47:23;2.70;;;0.90;;
50631;SDS011;49583;45.590;-122.498;2023-05-10T00:49:36;1.50;;;0.80;;
50631;SDS011;49583;45.590;-122.498;2023-05-10T00:51:49;5.20;;;0.60;;
50631;SDS011;49583;45.590;-122.498;2023-05-10T00:54:02;1.30;;;0.80;;
50631;SDS011;49583;45.590;-122.498;2023-05-10T00:56:18;1.50;;;0.90;;
50631;SDS011;49583;45.590;-122.498;2023-05-10T00:58:31;0.90;;;0.60;;
50631;SDS011;49583;45.590;-122.498;2023-05-10T01:00:45;1.30;;;0.60;;
50631;SDS011;49583;45.590;-122.498;2023-05-10T01:03:19;1.60;;;0.80;;
50631;SDS011;49583;45.590;-122.498;2023-05-10T01:05:31;2.10;;;0.60;;
50631;SDS011;49583;45.590;-122.498;2023-05-10T01:07:45;2.50;;;1.10;;
50631;SDS011;49583;45.590;-122.498;2023-05-10T01:10:00;2.10;;;0.90;;
50631;SDS011;49583;45.590;-122.498;2023-05-10T01:12:22;1.60;;;0.80;;
50631;SDS011;49583;45.590;-122.498;2023-05-10T01:14:36;2.60;;;0.60;;
50631;SDS011;49583;45.590;-122.498;2023-05-10T01:16:49;2.90;;;0.70;;
50631;SDS011;49583;45.590;-122.498;2023-05-10T01:19:02;2.00;;;0.70;;
50631;SDS011;49583;45.590;-122.498;2023-05-10T01:21:42;3.00;;;0.80;;
50631;SDS011;49583;45.590;-122.498;2023-05-10T01:24:07;0.90;;;0.70;;
50631;SDS011;49583;45.590;-122.498;2023-05-10T01:26:34;2.80;;;0.80;;
50631;SDS011;49583;45.590;-122.498;2023-05-10T01:29:38;0.80;;;0.80;;
50631;SDS011;49583;45.590;-122.498;2023-05-10T01:32:26;0.80;;;0.70;;
50631;SDS011;49583;45.590;-122.498;2023-05-10T01:34:45;1.70;;;0.80;;
50631;SDS011;49583;45.590;-122.498;2023-05-10T01:37:06;0.90;;;0.70;;
50631;SDS011;49583;45.590;-122.498;2023-05-10T01:39:24;2.80;;;0.70;;
50631;SDS011;49583;45.590;-122.498;2023-05-10T01:41:43;2.20;;;0.60;;
50631;SDS011;49583;45.590;-122.498;2023-05-10T01:44:13;1.40;;;0.80;;
50631;SDS011;49583;45.590;-122.498;2023-05-10T01:46:36;2.80;;;0.60;;
50631;SDS011;49583;45.590;-122.498;2023-05-10T01:48:51;1.30;;;0.70;;
50631;SDS011;49583;45.590;-122.498;2023-05-10T01:51:15;2.60;;;0.70;;
50631;SDS011;49583;45.590;-122.498;2023-05-10T01:53:32;2.10;;;0.90;;
50631;SDS011;49583;45.590;-122.498;2023-05-10T01:55:50;1.10;;;0.80;;
50631;SDS011;49583;45.590;-122.498;2023-05-10T01:58:05;2.20;;;0.90;;
50631;SDS011;49583;45.590;-122.498;2023-05-10T02:00:19;1.40;;;0.80;;
50631;SDS011;49583;45.590;-122.498;2023-05-10T02:02:54;0.80;;;0.70;;
50631;SDS011;49583;45.590;-122.498;2023-05-10T02:05:12;1.00;;;0.70;;
50631;SDS011;49583;45.590;-122.498;2023-05-10T02:07:32;0.60;;;0.60;;
50631;SDS011;49583;45.590;-122.498;2023-05-10T02:10:09;0.80;;;0.60;;
50631;SDS011;49583;45.590;-122.498;2023-05-10T02:12:25;1.30;;;0.60;;
50631;SDS011;49583;45.590;-122.498;2023-05-10T02:14:39;0.80;;;0.60;;
50631;SDS011;49583;45.590;-122.498;2023-05-10T02:16:54;1.10;;;0.80;;
50631;SDS011;49583;45.590;-122.498;2023-05-10T02:19:08;1.20;;;0.60;;
50631;SDS011;49583;45.590;-122.498;2023-05-10T02:21:23;1.20;;;0.60;;
50631;SDS011;49583;45.590;-122.498;2023-05-10T02:23:47;1.30;;;0.70;;
50631;SDS011;49583;45.590;-122.498;2023-05-10T02:26:01;1.60;;;0.60;;
50631;SDS011;49583;45.590;-122.498;2023-05-10T02:28:16;0.90;;;0.50;;
50631;SDS011;49583;45.590;-122.498;2023-05-10T02:30:30;0.40;;;0.40;;
50631;SDS011;49583;45.590;-122.498;2023-05-10T02:32:55;1.60;;;0.60;;
50631;SDS011;49583;45.590;-122.498;2023-05-10T02:35:11;0.80;;;0.50;;
50631;SDS011;49583;45.590;-122.498;2023-05-10T02:37:24;3.40;;;0.70;;
50631;SDS011;49583;45.590;-122.498;2023-05-10T02:39:37;1.30;;;0.70;;
50631;SDS011;49583;45.590;-122.498;2023-05-10T02:41:52;1.60;;;1.00;;
50631;SDS011;49583;45.590;-122.498;2023-05-10T02:44:10;1.30;;;0.80;;
50631;SDS011;49583;45.590;-122.498;2023-05-10T02:46:25;3.40;;;1.30;;
50631;SDS011;49583;45.590;-122.498;2023-05-10T02:48:38;2.10;;;0.70;;
50631;SDS011;49583;45.590;-122.498;2023-05-10T02:50:51;0.80;;;0.60;;
50631;SDS011;49583;45.590;-122.498;2023-05-10T02:53:11;0.90;;;0.50;;
50631;SDS011;49583;45.590;-122.498;2023-05-10T02:55:30;6.00;;;0.60;;
50631;SDS011;49583;45.590;-122.498;2023-05-10T02:57:48;1.10;;;0.60;;
50631;SDS011;49583;45.590;-122.498;2023-05-10T03:00:11;2.00;;;0.90;;
50631;SDS011;49583;45.590;-122.498;2023-05-10T03:02:24;3.30;;;0.80;;
50631;SDS011;49583;45.590;-122.498;2023-05-10T03:04:48;1.10;;;0.60;;
50631;SDS011;49583;45.590;-122.498;2023-05-10T03:07:02;1.30;;;0.60;;
50631;SDS011;49583;45.590;-122.498;2023-05-10T03:09:16;2.10;;;0.80;;
50631;SDS011;49583;45.590;-122.498;2023-05-10T03:11:32;1.00;;;0.60;;
50631;SDS011;49583;45.590;-122.498;2023-05-10T03:13:56;1.40;;;0.70;;
50631;SDS011;49583;45.590;-122.498;2023-05-10T03:16:24;0.50;;;0.50;;
50631;SDS011;49583;45.590;-122.498;2023-05-10T03:18:47;1.40;;;0.60;;
50631;SDS011;49583;45.590;-122.498;2023-05-10T03:21:04;1.30;;;0.50;;
50631;SDS011;49583;45.590;-122.498;2023-05-10T03:23:24;0.80;;;0.60;;
50631;SDS011;49583;45.590;-122.498;2023-05-10T03:25:44;2.80;;;0.70;;
50631;SDS011;49583;45.590;-122.498;2023-05-10T03:28:08;1.30;;;0.80;;
50631;SDS011;49583;45.590;-122.498;2023-05-10T03:30:21;2.70;;;0.90;;
50631;SDS011;49583;45.590;-122.498;2023-05-10T03:32:45;1.60;;;0.70;;
50631;SDS011;49583;45.590;-122.498;2023-05-10T03:34:59;1.10;;;0.90;;
50631;SDS011;49583;45.590;-122.498;2023-05-10T03:37:16;4.10;;;0.70;;
50631;SDS011;49583;45.590;-122.498;2023-05-10T03:39:38;0.70;;;0.60;;
50631;SDS011;49583;45.590;-122.498;2023-05-10T03:41:51;3.20;;;1.00;;
50631;SDS011;49583;45.590;-122.498;2023-05-10T03:44:04;2.60;;;0.90;;
50631;SDS011;49583;45.590;-122.498;2023-05-10T03:48:37;2.70;;;1.20;;
50631;SDS011;49583;45.590;-122.498;2023-05-10T03:50:50;1.60;;;1.20;;
50631;SDS011;49583;45.590;-122.498;2023-05-10T03:53:27;1.90;;;1.50;;
50631;SDS011;49583;45.590;-122.498;2023-05-10T03:55:39;3.90;;;1.20;;
50631;SDS011;49583;45.590;-122.498;2023-05-10T03:57:56;2.10;;;1.50;;
50631;SDS011;49583;45.590;-122.498;2023-05-10T04:00:11;3.20;;;1.10;;
50631;SDS011;49583;45.590;-122.498;2023-05-10T04:02:26;1.50;;;1.10;;
50631;SDS011;49583;45.590;-122.498;2023-05-10T04:04:39;4.10;;;1.20;;
50631;SDS011;49583;45.590;-122.498;2023-05-10T04:06:52;4.40;;;1.40;;
50631;SDS011;49583;45.590;-122.498;2023-05-10T04:09:05;3.00;;;1.30;;
50631;SDS011;49583;45.590;-122.498;2023-05-10T04:11:18;3.50;;;1.50;;
50631;SDS011;49583;45.590;-122.498;2023-05-10T04:13:31;4.40;;;1.40;;
50631;SDS011;49583;45.590;-122.498;2023-05-10T04:15:45;3.00;;;1.20;;
50631;SDS011;49583;45.590;-122.498;2023-05-10T04:18:06;2.10;;;1.00;;
50631;SDS011;49583;45.590;-122.498;2023-05-10T04:20:22;1.60;;;0.80;;
50631;SDS011;49583;45.590;-122.498;2023-05-10T04:22:35;2.30;;;1.00;;
50631;SDS011;49583;45.590;-122.498;2023-05-10T04:24:48;2.50;;;0.80;;
50631;SDS011;49583;45.590;-122.498;2023-05-10T04:27:00;1.10;;;0.80;;
50631;SDS011;49583;45.590;-122.498;2023-05-10T04:29:13;2.30;;;1.00;;
50631;SDS011;49583;45.590;-122.498;2023-05-10T04:31:26;1.40;;;0.90;;
50631;SDS011;49583;45.590;-122.498;2023-05-10T04:33:39;1.10;;;0.70;;
50631;SDS011;49583;45.590;-122.498;2023-05-10T04:35:52;1.30;;;1.00;;
50631;SDS011;49583;45.590;-122.498;2023-05-10T04:38:05;1.90;;;1.10;;
50631;SDS011;49583;45.590;-122.498;2023-05-10T04:40:17;2.30;;;0.90;;
50631;SDS011;49583;45.590;-122.498;2023-05-10T04:42:30;1.50;;;0.90;;
50631;SDS011;49583;45.590;-122.498;2023-05-10T04:44:42;2.40;;;1.00;;
50631;SDS011;49583;45.590;-122.498;2023-05-10T04:46:55;1.40;;;1.00;;
50631;SDS011;49583;45.590;-122.498;2023-05-10T04:49:07;1.60;;;1.00;;
50631;SDS011;49583;45.590;-122.498;2023-05-10T04:51:20;1.30;;;0.70;;
50631;SDS011;49583;45.590;-122.498;2023-05-10T04:53:33;1.50;;;0.80;;
50631;SDS011;49583;45.590;-122.498;2023-05-10T04:55:48;2.00;;;0.90;;
50631;SDS011;49583;45.590;-122.498;2023-05-10T04:58:01;1.30;;;1.20;;
50631;SDS011;49583;45.590;-122.498;2023-05-10T05:00:16;1.10;;;0.70;;
50631;SDS011;49583;45.590;-122.498;2023-05-10T05:02:29;1.30;;;0.70;;
50631;SDS011;49583;45.590;-122.498;2023-05-10T05:04:45;2.00;;;0.70;;
50631;SDS011;49583;45.590;-122.498;2023-05-10T05:07:01;1.80;;;0.70;;
50631;SDS011;49583;45.590;-122.498;2023-05-10T05:09:15;1.20;;;0.60;;
50631;SDS011;49583;45.590;-122.498;2023-05-10T05:11:31;1.40;;;0.70;;
50631;SDS011;49583;45.590;-122.498;2023-05-10T05:13:47;2.10;;;0.70;;
50631;SDS011;49583;45.590;-122.498;2023-05-10T05:16:03;2.30;;;0.90;;
50631;SDS011;49583;45.590;-122.498;2023-05-10T05:18:16;1.20;;;0.70;;
50631;SDS011;49583;45.590;-122.498;2023-05-10T05:20:31;2.90;;;0.80;;
50631;SDS011;49583;45.590;-122.498;2023-05-10T05:22:47;4.50;;;0.80;;
50631;SDS011;49583;45.590;-122.498;2023-05-10T05:24:59;2.20;;;1.00;;
50631;SDS011;49583;45.590;-122.498;2023-05-10T05:27:12;3.40;;;1.00;;
50631;SDS011;49583;45.590;-122.498;2023-05-10T05:29:25;1.00;;;0.60;;
50631;SDS011;49583;45.590;-122.498;2023-05-10T05:31:37;1.50;;;0.90;;
50631;SDS011;49583;45.590;-122.498;2023-05-10T05:33:50;5.00;;;1.00;;
50631;SDS011;49583;45.590;-122.498;2023-05-10T05:36:03;2.60;;;0.90;;
50631;SDS011;49583;45.590;-122.498;2023-05-10T05:38:16;4.20;;;0.80;;
50631;SDS011;49583;45.590;-122.498;2023-05-10T05:40:33;2.90;;;0.90;;
50631;SDS011;49583;45.590;-122.498;2023-05-10T05:42:45;2.30;;;0.70;;
50631;SDS011;49583;45.590;-122.498;2023-05-10T05:44:58;3.40;;;0.80;;
50631;SDS011;49583;45.590;-122.498;2023-05-10T05:47:11;1.20;;;0.70;;
50631;SDS011;49583;45.590;-122.498;2023-05-10T05:49:23;1.90;;;1.00;;
50631;SDS011;49583;45.590;-122.498;2023-05-10T05:51:38;2.10;;;0.60;;
50631;SDS011;49583;45.590;-122.498;2023-05-10T05:53:54;3.20;;;0.60;;
50631;SDS011;49583;45.590;-122.498;2023-05-10T05:56:08;2.10;;;1.10;;
50631;SDS011;49583;45.590;-122.498;2023-05-10T05:58:20;3.70;;;0.80;;
50631;SDS011;49583;45.590;-122.498;2023-05-10T06:00:34;3.90;;;0.70;;
50631;SDS011;49583;45.590;-122.498;2023-05-10T06:03:07;2.60;;;1.20;;
50631;SDS011;49583;45.590;-122.498;2023-05-10T06:05:20;1.60;;;0.80;;
50631;SDS011;49583;45.590;-122.498;2023-05-10T06:07:33;2.20;;;0.70;;
50631;SDS011;49583;45.590;-122.498;2023-05-10T06:09:48;2.70;;;1.00;;
50631;SDS011;49583;45.590;-122.498;2023-05-10T06:12:06;1.20;;;0.70;;
50631;SDS011;49583;45.590;-122.498;2023-05-10T06:14:19;4.60;;;0.90;;
50631;SDS011;49583;45.590;-122.498;2023-05-10T06:16:32;5.50;;;1.40;;
50631;SDS011;49583;45.590;-122.498;2023-05-10T06:18:45;4.00;;;0.80;;
50631;SDS011;49583;45.590;-122.498;2023-05-10T06:21:15;2.50;;;0.70;;
50631;SDS011;49583;45.590;-122.498;2023-05-10T06:23:27;5.40;;;0.80;;
50631;SDS011;49583;45.590;-122.498;2023-05-10T06:25:44;2.00;;;0.60;;
50631;SDS011;49583;45.590;-122.498;2023-05-10T06:27:59;2.30;;;1.00;;
50631;SDS011;49583;45.590;-122.498;2023-05-10T06:30:12;1.60;;;0.70;;
50631;SDS011;49583;45.590;-122.498;2023-05-10T06:32:25;2.10;;;0.90;;
50631;SDS011;49583;45.590;-122.498;2023-05-10T06:34:38;1.10;;;0.70;;
50631;SDS011;49583;45.590;-122.498;2023-05-10T06:36:51;2.00;;;0.90;;
50631;SDS011;49583;45.590;-122.498;2023-05-10T06:39:04;2.10;;;1.00;;
50631;SDS011;49583;45.590;-122.498;2023-05-10T06:41:22;1.80;;;0.70;;
50631;SDS011;49583;45.590;-122.498;2023-05-10T06:43:45;1.50;;;0.90;;
50631;SDS011;49583;45.590;-122.498;2023-05-10T06:46:01;2.10;;;1.20;;
50631;SDS011;49583;45.590;-122.498;2023-05-10T06:48:14;3.90;;;1.00;;
50631;SDS011;49583;45.590;-122.498;2023-05-10T06:50:30;2.30;;;0.80;;
50631;SDS011;49583;45.590;-122.498;2023-05-10T06:52:43;1.20;;;0.80;;
50631;SDS011;49583;45.590;-122.498;2023-05-10T06:54:58;2.60;;;0.80;;
50631;SDS011;49583;45.590;-122.498;2023-05-10T06:57:11;3.30;;;1.20;;
50631;SDS011;49583;45.590;-122.498;2023-05-10T06:59:36;3.40;;;0.90;;
50631;SDS011;49583;45.590;-122.498;2023-05-10T07:01:49;2.30;;;1.20;;
50631;SDS011;49583;45.590;-122.498;2023-05-10T07:04:02;1.70;;;1.00;;
50631;SDS011;49583;45.590;-122.498;2023-05-10T07:06:15;3.50;;;0.90;;
50631;SDS011;49583;45.590;-122.498;2023-05-10T07:08:42;1.20;;;0.80;;
50631;SDS011;49583;45.590;-122.498;2023-05-10T07:11:05;3.40;;;1.00;;
50631;SDS011;49583;45.590;-122.498;2023-05-10T07:13:18;1.40;;;0.90;;
50631;SDS011;49583;45.590;-122.498;2023-05-10T07:15:34;4.50;;;1.30;;
50631;SDS011;49583;45.590;-122.498;2023-05-10T07:17:47;2.00;;;0.90;;
50631;SDS011;49583;45.590;-122.498;2023-05-10T07:20:03;2.80;;;1.30;;
50631;SDS011;49583;45.590;-122.498;2023-05-10T07:22:17;1.50;;;0.90;;
50631;SDS011;49583;45.590;-122.498;2023-05-10T07:24:30;1.50;;;0.80;;
50631;SDS011;49583;45.590;-122.498;2023-05-10T07:26:44;4.10;;;1.30;;
50631;SDS011;49583;45.590;-122.498;2023-05-10T07:29:00;1.50;;;1.20;;
50631;SDS011;49583;45.590;-122.498;2023-05-10T07:31:13;3.80;;;1.20;;
50631;SDS011;49583;45.590;-122.498;2023-05-10T07:33:25;0.80;;;0.80;;
50631;SDS011;49583;45.590;-122.498;2023-05-10T07:35:38;6.20;;;1.50;;
50631;SDS011;49583;45.590;-122.498;2023-05-10T07:37:51;2.00;;;1.00;;
50631;SDS011;49583;45.590;-122.498;2023-05-10T07:40:04;1.70;;;0.90;;
50631;SDS011;49583;45.590;-122.498;2023-05-10T07:42:27;4.20;;;1.20;;
50631;SDS011;49583;45.590;-122.498;2023-05-10T07:44:39;2.10;;;1.00;;
50631;SDS011;49583;45.590;-122.498;2023-05-10T07:46:53;3.90;;;1.10;;
50631;SDS011;49583;45.590;-122.498;2023-05-10T07:49:06;2.00;;;1.10;;
50631;SDS011;49583;45.590;-122.498;2023-05-10T07:51:21;1.40;;;0.90;;
50631;SDS011;49583;45.590;-122.498;2023-05-10T07:53:35;1.20;;;1.00;;
50631;SDS011;49583;45.590;-122.498;2023-05-10T07:55:51;3.90;;;1.20;;
50631;SDS011;49583;45.590;-122.498;2023-05-10T07:58:11;3.70;;;1.40;;
50631;SDS011;49583;45.590;-122.498;2023-05-10T08:00:23;1.50;;;0.90;;
50631;SDS011;49583;45.590;-122.498;2023-05-10T08:02:36;3.20;;;1.00;;
50631;SDS011;49583;45.590;-122.498;2023-05-10T08:04:52;2.00;;;1.10;;
50631;SDS011;49583;45.590;-122.498;2023-05-10T08:07:08;3.50;;;1.50;;
50631;SDS011;49583;45.590;-122.498;2023-05-10T08:09:24;3.60;;;1.10;;
50631;SDS011;49583;45.590;-122.498;2023-05-10T08:11:37;1.60;;;1.10;;
50631;SDS011;49583;45.590;-122.498;2023-05-10T08:13:49;3.60;;;1.10;;
50631;SDS011;49583;45.590;-122.498;2023-05-10T08:16:03;1.90;;;1.10;;
50631;SDS011;49583;45.590;-122.498;2023-05-10T08:18:17;4.10;;;1.10;;
50631;SDS011;49583;45.590;-122.498;2023-05-10T08:20:30;4.70;;;1.10;;
50631;SDS011;49583;45.590;-122.498;2023-05-10T08:22:42;11.20;;;1.20;;
50631;SDS011;49583;45.590;-122.498;2023-05-10T08:25:08;3.20;;;1.50;;
50631;SDS011;49583;45.590;-122.498;2023-05-10T08:27:21;4.60;;;1.10;;
50631;SDS011;49583;45.590;-122.498;2023-05-10T08:29:34;2.90;;;1.30;;
50631;SDS011;49583;45.590;-122.498;2023-05-10T08:31:55;2.10;;;1.10;;
50631;SDS011;49583;45.590;-122.498;2023-05-10T08:34:11;1.90;;;1.30;;
50631;SDS011;49583;45.590;-122.498;2023-05-10T08:36:24;2.20;;;1.30;;
50631;SDS011;49583;45.590;-122.498;2023-05-10T08:38:39;3.30;;;1.70;;
50631;SDS011;49583;45.590;-122.498;2023-05-10T08:40:55;2.00;;;1.30;;
50631;SDS011;49583;45.590;-122.498;2023-05-10T08:43:11;2.60;;;1.10;;
50631;SDS011;49583;45.590;-122.498;2023-05-10T08:45:24;3.90;;;2.20;;
50631;SDS011;49583;45.590;-122.498;2023-05-10T08:47:41;1.70;;;1.20;;
50631;SDS011;49583;45.590;-122.498;2023-05-10T08:49:55;3.10;;;1.40;;
50631;SDS011;49583;45.590;-122.498;2023-05-10T08:52:10;3.90;;;1.50;;
50631;SDS011;49583;45.590;-122.498;2023-05-10T08:54:25;4.40;;;1.30;;
50631;SDS011;49583;45.590;-122.498;2023-05-10T08:56:42;1.50;;;1.00;;
50631;SDS011;49583;45.590;-122.498;2023-05-10T08:58:56;1.70;;;1.30;;
50631;SDS011;49583;45.590;-122.498;2023-05-10T09:01:08;3.50;;;1.30;;
50631;SDS011;49583;45.590;-122.498;2023-05-10T09:03:23;3.20;;;1.10;;
50631;SDS011;49583;45.590;-122.498;2023-05-10T09:05:35;3.20;;;1.40;;
50631;SDS011;49583;45.590;-122.498;2023-05-10T09:07:48;3.40;;;1.30;;
50631;SDS011;49583;45.590;-122.498;2023-05-10T09:10:04;2.30;;;1.50;;
50631;SDS011;49583;45.590;-122.498;2023-05-10T09:12:23;5.30;;;1.60;;
50631;SDS011;49583;45.590;-122.498;2023-05-10T09:14:36;1.50;;;1.30;;
50631;SDS011;49583;45.590;-122.498;2023-05-10T09:16:51;4.00;;;1.40;;
50631;SDS011;49583;45.590;-122.498;2023-05-10T09:19:04;1.50;;;1.20;;
50631;SDS011;49583;45.590;-122.498;2023-05-10T09:21:18;2.60;;;1.10;;
50631;SDS011;49583;45.590;-122.498;2023-05-10T09:23:31;1.50;;;1.10;;
50631;SDS011;49583;45.590;-122.498;2023-05-10T09:26:03;4.40;;;1.70;;
50631;SDS011;49583;45.590;-122.498;2023-05-10T09:28:17;2.60;;;1.40;;
50631;SDS011;49583;45.590;-122.498;2023-05-10T09:30:30;4.20;;;1.30;;
50631;SDS011;49583;45.590;-122.498;2023-05-10T09:32:43;5.40;;;1.10;;
50631;SDS011;49583;45.590;-122.498;2023-05-10T09:35:09;2.70;;;0.90;;
50631;SDS011;49583;45.590;-122.498;2023-05-10T09:37:30;2.90;;;1.40;;
50631;SDS011;49583;45.590;-122.498;2023-05-10T09:39:46;4.60;;;1.50;;
50631;SDS011;49583;45.590;-122.498;2023-05-10T09:42:04;3.70;;;1.20;;
50631;SDS011;49583;45.590;-122.498;2023-05-10T09:44:21;2.60;;;1.10;;
50631;SDS011;49583;45.590;-122.498;2023-05-10T09:46:44;1.80;;;1.30;;
50631;SDS011;49583;45.590;-122.498;2023-05-10T09:49:06;1.60;;;1.40;;
50631;SDS011;49583;45.590;-122.498;2023-05-10T09:51:22;4.40;;;1.40;;
50631;SDS011;49583;45.590;-122.498;2023-05-10T09:53:36;2.40;;;1.20;;
50631;SDS011;49583;45.590;-122.498;2023-05-10T09:55:49;1.20;;;1.10;;
50631;SDS011;49583;45.590;-122.498;2023-05-10T09:58:02;1.60;;;1.40;;
50631;SDS011;49583;45.590;-122.498;2023-05-10T10:00:24;2.50;;;1.60;;
50631;SDS011;49583;45.590;-122.498;2023-05-10T10:03:15;3.20;;;1.20;;
50631;SDS011;49583;45.590;-122.498;2023-05-10T10:05:31;2.60;;;1.30;;
50631;SDS011;49583;45.590;-122.498;2023-05-10T10:07:44;1.40;;;1.30;;
50631;SDS011;49583;45.590;-122.498;2023-05-10T10:10:10;1.70;;;1.30;;
50631;SDS011;49583;45.590;-122.498;2023-05-10T10:12:25;3.30;;;1.40;;
50631;SDS011;49583;45.590;-122.498;2023-05-10T10:14:42;4.80;;;1.50;;
50631;SDS011;49583;45.590;-122.498;2023-05-10T10:16:55;2.20;;;1.70;;
50631;SDS011;49583;45.590;-122.498;2023-05-10T10:19:14;4.00;;;1.50;;
50631;SDS011;49583;45.590;-122.498;2023-05-10T10:21:28;4.70;;;1.50;;
50631;SDS011;49583;45.590;-122.498;2023-05-10T10:23:41;4.00;;;1.40;;
50631;SDS011;49583;45.590;-122.498;2023-05-10T10:25:54;1.80;;;1.30;;
50631;SDS011;49583;45.590;-122.498;2023-05-10T10:28:10;1.70;;;1.00;;
50631;SDS011;49583;45.590;-122.498;2023-05-10T10:30:39;2.00;;;1.30;;
50631;SDS011;49583;45.590;-122.498;2023-05-10T10:33:06;8.50;;;1.50;;
50631;SDS011;49583;45.590;-122.498;2023-05-10T10:35:34;2.20;;;1.40;;
50631;SDS011;49583;45.590;-122.498;2023-05-10T10:37:47;1.30;;;1.10;;
50631;SDS011;49583;45.590;-122.498;2023-05-10T10:40:13;4.40;;;1.40;;
50631;SDS011;49583;45.590;-122.498;2023-05-10T10:42:47;4.60;;;1.30;;
50631;SDS011;49583;45.590;-122.498;2023-05-10T10:45:13;1.30;;;1.20;;
50631;SDS011;49583;45.590;-122.498;2023-05-10T10:47:27;1.70;;;1.40;;
50631;SDS011;49583;45.590;-122.498;2023-05-10T10:49:50;2.30;;;1.70;;
50631;SDS011;49583;45.590;-122.498;2023-05-10T10:54:42;8.20;;;1.70;;
50631;SDS011;49583;45.590;-122.498;2023-05-10T10:57:13;2.10;;;1.30;;
50631;SDS011;49583;45.590;-122.498;2023-05-10T10:59:32;1.90;;;1.10;;
50631;SDS011;49583;45.590;-122.498;2023-05-10T11:01:46;2.00;;;1.10;;
50631;SDS011;49583;45.590;-122.498;2023-05-10T11:04:19;3.20;;;1.30;;
50631;SDS011;49583;45.590;-122.498;2023-05-10T11:06:44;2.60;;;1.30;;
50631;SDS011;49583;45.590;-122.498;2023-05-10T11:08:57;1.40;;;1.30;;
50631;SDS011;49583;45.590;-122.498;2023-05-10T11:11:17;2.80;;;1.30;;
50631;SDS011;49583;45.590;-122.498;2023-05-10T11:13:34;2.70;;;1.40;;
50631;SDS011;49583;45.590;-122.498;2023-05-10T11:16:09;2.60;;;1.40;;
50631;SDS011;49583;45.590;-122.498;2023-05-10T11:18:30;1.30;;;1.20;;
50631;SDS011;49583;45.590;-122.498;2023-05-10T11:20:43;2.10;;;1.30;;
50631;SDS011;49583;45.590;-122.498;2023-05-10T11:23:10;2.20;;;1.70;;
50631;SDS011;49583;45.590;-122.498;2023-05-10T11:25:28;3.20;;;1.40;;
50631;SDS011;49583;45.590;-122.498;2023-05-10T11:27:50;1.80;;;1.10;;
50631;SDS011;49583;45.590;-122.498;2023-05-10T11:30:07;3.90;;;1.30;;
50631;SDS011;49583;45.590;-122.498;2023-05-10T11:32:31;1.50;;;1.20;;
50631;SDS011;49583;45.590;-122.498;2023-05-10T11:34:49;2.00;;;1.40;;
50631;SDS011;49583;45.590;-122.498;2023-05-10T11:37:01;2.00;;;1.10;;
50631;SDS011;49583;45.590;-122.498;2023-05-10T11:39:14;2.00;;;1.30;;
50631;SDS011;49583;45.590;-122.498;2023-05-10T11:41:28;3.10;;;1.30;;
50631;SDS011;49583;45.590;-122.498;2023-05-10T11:43:41;1.80;;;1.20;;
50631;SDS011;49583;45.590;-122.498;2023-05-10T11:45:59;1.80;;;1.40;;
50631;SDS011;49583;45.590;-122.498;2023-05-10T11:48:12;4.00;;;1.30;;
50631;SDS011;49583;45.590;-122.498;2023-05-10T11:50:29;3.20;;;1.70;;
50631;SDS011;49583;45.590;-122.498;2023-05-10T11:52:42;2.00;;;1.30;;
50631;SDS011;49583;45.590;-122.498;2023-05-10T11:55:09;6.90;;;2.10;;
50631;SDS011;49583;45.590;-122.498;2023-05-10T11:57:27;1.60;;;1.50;;
50631;SDS011;49583;45.590;-122.498;2023-05-10T11:59:44;4.40;;;1.30;;
50631;SDS011;49583;45.590;-122.498;2023-05-10T12:01:56;1.70;;;1.50;;
50631;SDS011;49583;45.590;-122.498;2023-05-10T12:04:12;4.90;;;1.60;;
50631;SDS011;49583;45.590;-122.498;2023-05-10T12:06:25;3.60;;;1.70;;
50631;SDS011;49583;45.590;-122.498;2023-05-10T12:08:43;3.70;;;1.30;;
50631;SDS011;49583;45.590;-122.498;2023-05-10T12:11:06;2.90;;;1.70;;
50631;SDS011;49583;45.590;-122.498;2023-05-10T12:13:19;2.40;;;1.60;;
50631;SDS011;49583;45.590;-122.498;2023-05-10T12:15:32;4.10;;;1.40;;
50631;SDS011;49583;45.590;-122.498;2023-05-10T12:17:54;3.40;;;1.50;;
50631;SDS011;49583;45.590;-122.498;2023-05-10T12:22:38;3.10;;;1.30;;
50631;SDS011;49583;45.590;-122.498;2023-05-10T12:25:05;1.90;;;1.40;;
50631;SDS011;49583;45.590;-122.498;2023-05-10T12:27:38;3.90;;;1.20;;
50631;SDS011;49583;45.590;-122.498;2023-05-10T12:29:56;2.20;;;1.40;;
50631;SDS011;49583;45.590;-122.498;2023-05-10T12:32:11;1.80;;;1.30;;
50631;SDS011;49583;45.590;-122.498;2023-05-10T12:34:25;6.90;;;1.60;;
50631;SDS011;49583;45.590;-122.498;2023-05-10T12:36:40;1.40;;;1.00;;
50631;SDS011;49583;45.590;-122.498;2023-05-10T12:39:00;1.60;;;1.30;;
50631;SDS011;49583;45.590;-122.498;2023-05-10T12:41:17;2.50;;;1.50;;
50631;SDS011;49583;45.590;-122.498;2023-05-10T12:43:32;3.00;;;1.30;;
50631;SDS011;49583;45.590;-122.498;2023-05-10T12:45:45;1.50;;;1.30;;
50631;SDS011;49583;45.590;-122.498;2023-05-10T12:47:57;2.40;;;1.30;;
50631;SDS011;49583;45.590;-122.498;2023-05-10T12:50:13;7.20;;;1.50;;
50631;SDS011;49583;45.590;-122.498;2023-05-10T12:52:26;3.60;;;1.60;;
50631;SDS011;49583;45.590;-122.498;2023-05-10T12:54:39;7.90;;;1.70;;
50631;SDS011;49583;45.590;-122.498;2023-05-10T12:56:51;3.50;;;1.30;;
50631;SDS011;49583;45.590;-122.498;2023-05-10T12:59:07;1.30;;;1.20;;
50631;SDS011;49583;45.590;-122.498;2023-05-10T13:01:20;2.90;;;1.80;;
50631;SDS011;49583;45.590;-122.498;2023-05-10T13:03:36;1.40;;;1.30;;
50631;SDS011;49583;45.590;-122.498;2023-05-10T13:05:48;3.80;;;1.40;;
50631;SDS011;49583;45.590;-122.498;2023-05-10T13:08:12;1.80;;;1.60;;
50631;SDS011;49583;45.590;-122.498;2023-05-10T13:10:25;1.80;;;1.30;;
50631;SDS011;49583;45.590;-122.498;2023-05-10T13:12:37;2.10;;;1.50;;
50631;SDS011;49583;45.590;-122.498;2023-05-10T13:15:11;2.60;;;1.40;;
50631;SDS011;49583;45.590;-122.498;2023-05-10T13:17:35;2.10;;;1.60;;